createdAt,value
2017-01-13T00:00:34.139Z,36.36
2017-01-13T00:01:14.734Z,36.26
2017-01-13T00:01:55.309Z,36.36
2017-01-13T00:02:35.907Z,36.26
2017-01-13T00:03:16.500Z,36.24
2017-01-13T00:03:57.088Z,36.36
2017-01-13T00:04:37.695Z,36.24
2017-01-13T00:05:18.292Z,36.16
2017-01-13T00:05:58.892Z,36.36
2017-01-13T00:06:39.498Z,36.36
2017-01-13T00:07:20.086Z,36.26
2017-01-13T00:08:00.687Z,36.26
2017-01-13T00:08:41.281Z,36.16
2017-01-13T00:09:21.883Z,36.26
2017-01-13T00:10:02.470Z,36.15
2017-01-13T00:10:43.583Z,36.26
2017-01-13T00:11:23.638Z,36.05
2017-01-13T00:12:04.234Z,36.24
2017-01-13T00:12:44.825Z,36.07
2017-01-13T00:13:25.409Z,36.26
2017-01-13T00:14:05.992Z,36.24
2017-01-13T00:14:46.577Z,36.24
2017-01-13T00:15:27.166Z,36.05
2017-01-13T00:16:07.766Z,36.07
2017-01-13T00:16:48.352Z,36.26
2017-01-13T00:17:28.956Z,36.15
2017-01-13T00:18:09.537Z,36.24
2017-01-13T00:18:50.148Z,36.16
2017-01-13T00:19:30.749Z,36.24
2017-01-13T00:20:11.328Z,36.15
2017-01-13T00:20:51.909Z,36.24
2017-01-13T00:21:32.486Z,36.07
2017-01-13T00:22:13.089Z,36.15
2017-01-13T00:22:53.681Z,36.05
2017-01-13T00:23:34.280Z,36.05
2017-01-13T00:24:14.861Z,36.15
2017-01-13T00:24:55.450Z,36.05
2017-01-13T00:25:36.040Z,36.15
2017-01-13T00:26:16.652Z,36.15
2017-01-13T00:26:57.240Z,36.24
2017-01-13T00:27:37.829Z,36.05
2017-01-13T00:28:18.419Z,36.24
2017-01-13T00:28:58.992Z,36.15
2017-01-13T00:29:39.585Z,36.24
2017-01-13T00:30:20.172Z,36.26
2017-01-13T00:31:00.755Z,36.15
2017-01-13T00:31:41.355Z,36.26
2017-01-13T00:32:21.942Z,36.24
2017-01-13T00:33:02.529Z,36.15
2017-01-13T00:33:43.129Z,36.24
2017-01-13T00:34:23.713Z,36.24
2017-01-13T00:35:04.300Z,36.05
2017-01-13T00:35:44.909Z,36.16
2017-01-13T00:36:25.527Z,36.15
2017-01-13T00:37:06.119Z,36.15
2017-01-13T00:37:46.726Z,36.05
2017-01-13T00:38:27.306Z,36.15
2017-01-13T00:39:07.910Z,36.24
2017-01-13T00:39:48.528Z,36.24
2017-01-13T00:40:29.103Z,36.24
2017-01-13T00:41:09.693Z,36.24
2017-01-13T00:41:50.292Z,36.24
2017-01-13T00:42:30.887Z,36.24
2017-01-13T00:43:11.477Z,36.05
2017-01-13T00:43:52.063Z,36.24
2017-01-13T00:44:32.644Z,36.26
2017-01-13T00:45:13.237Z,36.05
2017-01-13T00:45:53.831Z,36.15
2017-01-13T00:46:34.429Z,36.15
2017-01-13T00:47:15.033Z,36.24
2017-01-13T00:47:55.633Z,36.15
2017-01-13T00:48:36.232Z,36.24
2017-01-13T00:49:16.838Z,36.24
2017-01-13T00:49:57.464Z,36.16
2017-01-13T00:50:38.060Z,36.24
2017-01-13T00:51:18.667Z,36.15
2017-01-13T00:51:59.265Z,36.15
2017-01-13T00:52:39.842Z,36.15
2017-01-13T00:53:20.452Z,36.05
2017-01-13T00:54:01.045Z,36.24
2017-01-13T00:54:41.627Z,36.24
2017-01-13T00:55:22.231Z,36.24
2017-01-13T00:56:02.814Z,36.24
2017-01-13T00:56:43.406Z,36.24
2017-01-13T00:57:24.010Z,36.24
2017-01-13T00:58:04.609Z,36.05
2017-01-13T00:58:45.242Z,36.15
2017-01-13T00:59:25.840Z,36.24
2017-01-13T01:00:06.451Z,36.15
2017-01-13T01:00:47.036Z,36.24
2017-01-13T01:01:27.688Z,36.34
2017-01-13T01:02:08.299Z,36.15
2017-01-13T01:02:48.904Z,36.15
2017-01-13T01:03:29.509Z,36.15
2017-01-13T01:04:10.077Z,36.15
2017-01-13T01:04:50.719Z,36.15
2017-01-13T01:05:31.334Z,36.15
2017-01-13T01:06:11.935Z,36.24
2017-01-13T01:06:52.528Z,36.15
2017-01-13T01:07:33.114Z,36.05
2017-01-13T01:08:13.732Z,36.24
2017-01-13T01:08:54.345Z,36.24
2017-01-13T01:09:34.911Z,36.24
2017-01-13T01:10:15.500Z,36.15
2017-01-13T01:10:56.091Z,36.15
2017-01-13T01:11:36.671Z,36.15
2017-01-13T01:12:17.263Z,36.05
2017-01-13T01:12:57.847Z,36.24
2017-01-13T01:13:38.441Z,36.24
2017-01-13T01:14:19.042Z,36.15
2017-01-13T01:14:59.642Z,36.24
2017-01-13T01:15:40.235Z,36.15
2017-01-13T01:16:20.835Z,36.15
2017-01-13T01:17:01.440Z,36.15
2017-01-13T01:17:42.042Z,36.15
2017-01-13T01:18:22.641Z,36.24
2017-01-13T01:19:03.227Z,36.15
2017-01-13T01:19:43.812Z,36.15
2017-01-13T01:20:24.398Z,36.15
2017-01-13T01:21:04.985Z,36.24
2017-01-13T01:21:45.597Z,36.15
2017-01-13T01:22:26.192Z,36.44
2017-01-13T01:23:06.823Z,36.44
2017-01-13T01:23:47.416Z,36.24
2017-01-13T01:24:28.023Z,36.34
2017-01-13T01:25:08.619Z,36.34
2017-01-13T01:25:49.214Z,36.15
2017-01-13T01:26:29.812Z,36.44
2017-01-13T01:27:10.420Z,36.24
2017-01-13T01:27:50.999Z,36.34
2017-01-13T01:28:31.615Z,36.15
2017-01-13T01:29:12.201Z,36.24
2017-01-13T01:29:52.803Z,36.44
2017-01-13T01:30:33.413Z,36.24
2017-01-13T01:31:14.038Z,36.15
2017-01-13T01:31:54.639Z,36.34
2017-01-13T01:32:35.241Z,36.24
2017-01-13T01:33:15.842Z,36.15
2017-01-13T01:33:56.431Z,36.34
2017-01-13T01:34:37.015Z,36.15
2017-01-13T01:35:17.606Z,36.24
2017-01-13T01:35:58.200Z,36.15
2017-01-13T01:36:38.796Z,36.34
2017-01-13T01:37:19.378Z,36.15
2017-01-13T01:37:59.959Z,36.05
2017-01-13T01:38:40.549Z,36.15
2017-01-13T01:39:21.141Z,36.15
2017-01-13T01:40:01.724Z,36.24
2017-01-13T01:40:42.302Z,36.44
2017-01-13T01:41:22.896Z,36.15
2017-01-13T01:42:03.479Z,36.24
2017-01-13T01:42:44.075Z,36.44
2017-01-13T01:43:24.666Z,36.24
2017-01-13T01:44:05.278Z,36.44
2017-01-13T01:44:45.867Z,36.34
2017-01-13T01:45:26.467Z,36.15
2017-01-13T01:46:07.056Z,36.44
2017-01-13T01:46:47.645Z,36.24
2017-01-13T01:47:28.258Z,36.15
2017-01-13T01:48:08.877Z,36.44
2017-01-13T01:48:49.465Z,36.44
2017-01-13T01:49:30.063Z,36.24
2017-01-13T01:50:10.648Z,36.34
2017-01-13T01:50:51.232Z,36.44
2017-01-13T01:51:31.840Z,36.15
2017-01-13T01:52:12.420Z,36.44
2017-01-13T01:52:53.009Z,36.24
2017-01-13T01:53:33.609Z,36.24
2017-01-13T01:54:14.188Z,36.24
2017-01-13T01:54:54.759Z,36.34
2017-01-13T01:55:35.346Z,36.15
2017-01-13T01:56:15.947Z,36.24
2017-01-13T01:56:56.569Z,36.24
2017-01-13T01:57:37.220Z,36.15
2017-01-13T01:58:17.821Z,36.15
2017-01-13T01:58:58.419Z,36.05
2017-01-13T01:59:39.009Z,36.44
2017-01-13T02:00:19.616Z,36.15
2017-01-13T02:01:00.226Z,36.24
2017-01-13T02:01:40.823Z,36.44
2017-01-13T02:02:21.408Z,36.44
2017-01-13T02:03:01.985Z,36.24
2017-01-13T02:03:42.587Z,36.24
2017-01-13T02:04:23.193Z,36.24
2017-01-13T02:05:03.762Z,36.34
2017-01-13T02:05:44.353Z,36.44
2017-01-13T02:06:24.927Z,36.44
2017-01-13T02:07:05.518Z,36.34
2017-01-13T02:07:46.143Z,36.44
2017-01-13T02:08:26.725Z,36.24
2017-01-13T02:09:07.326Z,36.34
2017-01-13T02:09:47.952Z,36.34
2017-01-13T02:10:28.535Z,36.34
2017-01-13T02:11:09.144Z,36.44
2017-01-13T02:11:49.729Z,36.15
2017-01-13T02:12:30.313Z,36.34
2017-01-13T02:13:10.898Z,36.34
2017-01-13T02:13:51.480Z,36.24
2017-01-13T02:14:32.057Z,36.44
2017-01-13T02:15:12.639Z,36.44
2017-01-13T02:15:53.227Z,36.24
2017-01-13T02:16:33.803Z,36.34
2017-01-13T02:17:14.402Z,36.24
2017-01-13T02:17:55.007Z,36.15
2017-01-13T02:18:35.597Z,36.34
2017-01-13T02:19:16.185Z,36.24
2017-01-13T02:19:56.827Z,36.15
2017-01-13T02:20:37.419Z,36.15
2017-01-13T02:21:18.006Z,36.24
2017-01-13T02:21:58.616Z,36.44
2017-01-13T02:22:39.193Z,36.34
2017-01-13T02:23:19.791Z,36.24
2017-01-13T02:24:00.377Z,36.15
2017-01-13T02:24:40.982Z,36.24
2017-01-13T02:25:21.572Z,36.34
2017-01-13T02:26:02.198Z,36.34
2017-01-13T02:26:42.780Z,36.24
2017-01-13T02:27:23.362Z,36.24
2017-01-13T02:28:03.959Z,36.15
2017-01-13T02:28:44.539Z,36.34
2017-01-13T02:29:25.133Z,36.15
2017-01-13T02:30:05.714Z,36.15
2017-01-13T02:30:46.300Z,36.44
2017-01-13T02:31:26.909Z,36.44
2017-01-13T02:32:07.514Z,36.44
2017-01-13T02:32:48.109Z,36.53
2017-01-13T02:33:28.701Z,36.24
2017-01-13T02:34:09.310Z,36.44
2017-01-13T02:34:49.897Z,36.24
2017-01-13T02:35:30.484Z,36.15
2017-01-13T02:36:11.067Z,36.24
2017-01-13T02:36:51.654Z,36.44
2017-01-13T02:37:32.245Z,36.44
2017-01-13T02:38:12.831Z,36.24
2017-01-13T02:38:53.410Z,36.24
2017-01-13T02:39:34.001Z,36.44
2017-01-13T02:40:14.594Z,36.15
2017-01-13T02:40:55.194Z,36.15
2017-01-13T02:41:35.797Z,36.34
2017-01-13T02:42:16.392Z,36.24
2017-01-13T02:42:56.981Z,36.44
2017-01-13T02:43:37.576Z,36.15
2017-01-13T02:44:18.167Z,36.34
2017-01-13T02:44:58.763Z,36.44
2017-01-13T02:45:39.378Z,36.34
2017-01-13T02:46:19.980Z,36.34
2017-01-13T02:47:00.580Z,36.15
2017-01-13T02:47:41.168Z,36.24
2017-01-13T02:48:21.763Z,36.24
2017-01-13T02:49:02.403Z,36.34
2017-01-13T02:49:43.021Z,36.24
2017-01-13T02:50:23.938Z,36.15
2017-01-13T02:51:04.884Z,36.15
2017-01-13T02:51:45.668Z,36.15
2017-01-13T02:52:26.289Z,36.24
2017-01-13T02:53:06.923Z,36.15
2017-01-13T02:53:47.519Z,36.05
2017-01-13T02:54:28.098Z,36.15
2017-01-13T02:55:08.691Z,36.24
2017-01-13T02:55:49.301Z,36.24
2017-01-13T02:56:29.882Z,36.15
2017-01-13T02:57:10.491Z,36.15
2017-01-13T02:57:51.100Z,36.15
2017-01-13T02:58:31.700Z,36.15
2017-01-13T02:59:12.295Z,36.34
2017-01-13T02:59:52.890Z,36.34
2017-01-13T03:00:33.476Z,36.05
2017-01-13T03:01:14.082Z,36.24
2017-01-13T03:01:54.677Z,36.24
2017-01-13T03:02:35.275Z,36.34
2017-01-13T03:03:15.854Z,36.15
2017-01-13T03:03:56.446Z,36.24
2017-01-13T03:04:37.033Z,36.34
2017-01-13T03:05:17.630Z,36.15
2017-01-13T03:05:58.217Z,36.15
2017-01-13T03:06:38.806Z,36.34
2017-01-13T03:07:19.393Z,36.44
2017-01-13T03:07:59.975Z,36.15
2017-01-13T03:08:40.562Z,36.13
2017-01-13T03:09:21.155Z,36.24
2017-01-13T03:10:01.751Z,36.13
2017-01-13T03:10:42.339Z,36.22
2017-01-13T03:11:22.925Z,36.34
2017-01-13T03:12:03.519Z,36.22
2017-01-13T03:12:44.105Z,36.22
2017-01-13T03:13:24.695Z,36.24
2017-01-13T03:14:05.279Z,36.15
2017-01-13T03:14:45.855Z,36.24
2017-01-13T03:15:26.446Z,36.03
2017-01-13T03:16:07.030Z,36.24
2017-01-13T03:16:47.630Z,36.15
2017-01-13T03:17:28.236Z,36.32
2017-01-13T03:18:08.834Z,36.24
2017-01-13T03:18:49.440Z,36.24
2017-01-13T03:19:30.060Z,36.24
2017-01-13T03:20:10.645Z,36.24
2017-01-13T03:20:51.253Z,36.03
2017-01-13T03:21:31.862Z,36.22
2017-01-13T03:22:12.459Z,36.13
2017-01-13T03:22:53.062Z,36.15
2017-01-13T03:23:33.642Z,36.24
2017-01-13T03:24:14.239Z,36.15
2017-01-13T03:24:54.845Z,36.13
2017-01-13T03:25:35.424Z,36.15
2017-01-13T03:26:16.010Z,36.15
2017-01-13T03:26:56.606Z,36.13
2017-01-13T03:27:37.209Z,36.15
2017-01-13T03:28:17.849Z,36.32
2017-01-13T03:28:58.443Z,36.13
2017-01-13T03:29:39.065Z,36.15
2017-01-13T03:30:19.647Z,36.24
2017-01-13T03:31:00.245Z,36.15
2017-01-13T03:31:40.845Z,36.13
2017-01-13T03:32:21.443Z,36.32
2017-01-13T03:33:02.025Z,36.15
2017-01-13T03:33:42.636Z,36.15
2017-01-13T03:34:23.286Z,36.13
2017-01-13T03:35:03.902Z,36.24
2017-01-13T03:35:44.509Z,36.22
2017-01-13T03:36:25.099Z,36.34
2017-01-13T03:37:05.696Z,36.24
2017-01-13T03:37:46.309Z,36.42
2017-01-13T03:38:26.894Z,36.34
2017-01-13T03:39:07.505Z,36.24
2017-01-13T03:39:48.107Z,36.24
2017-01-13T03:40:28.682Z,36.32
2017-01-13T03:41:09.261Z,36.32
2017-01-13T03:41:49.881Z,36.24
2017-01-13T03:42:30.473Z,36.44
2017-01-13T03:43:11.072Z,36.24
2017-01-13T03:43:51.690Z,36.32
2017-01-13T03:44:32.284Z,36.24
2017-01-13T03:45:12.884Z,36.44
2017-01-13T03:45:53.525Z,36.24
2017-01-13T03:46:34.121Z,36.24
2017-01-13T03:47:14.723Z,36.42
2017-01-13T03:47:55.386Z,36.42
2017-01-13T03:48:35.974Z,36.22
2017-01-13T03:49:16.572Z,36.22
2017-01-13T03:49:57.158Z,36.22
2017-01-13T03:50:37.751Z,36.13
2017-01-13T03:51:18.336Z,36.34
2017-01-13T03:51:58.926Z,36.32
2017-01-13T03:52:39.551Z,36.32
2017-01-13T03:53:20.146Z,36.22
2017-01-13T03:54:00.762Z,36.34
2017-01-13T03:54:41.351Z,36.34
2017-01-13T03:55:21.951Z,36.42
2017-01-13T03:56:02.557Z,36.32
2017-01-13T03:56:43.175Z,36.22
2017-01-13T03:57:23.786Z,36.42
2017-01-13T03:58:04.374Z,36.24
2017-01-13T03:58:45.011Z,36.22
2017-01-13T03:59:25.617Z,36.52
2017-01-13T04:00:06.225Z,36.22
2017-01-13T04:00:46.829Z,36.42
2017-01-13T04:01:27.418Z,36.42
2017-01-13T04:02:08.021Z,36.32
2017-01-13T04:02:48.622Z,36.22
2017-01-13T04:03:29.211Z,36.24
2017-01-13T04:04:09.835Z,36.22
2017-01-13T04:04:50.433Z,36.22
2017-01-13T04:05:31.027Z,36.42
2017-01-13T04:06:11.642Z,36.32
2017-01-13T04:06:52.236Z,36.53
2017-01-13T04:07:32.822Z,36.44
2017-01-13T04:08:13.403Z,36.32
2017-01-13T04:08:53.995Z,36.44
2017-01-13T04:09:34.589Z,36.42
2017-01-13T04:10:15.196Z,36.44
2017-01-13T04:10:55.782Z,36.42
2017-01-13T04:11:36.391Z,36.22
2017-01-13T04:12:17.012Z,36.24
2017-01-13T04:12:57.606Z,36.34
2017-01-13T04:13:38.204Z,36.24
2017-01-13T04:14:18.806Z,36.42
2017-01-13T04:14:59.395Z,36.32
2017-01-13T04:15:40.007Z,36.32
2017-01-13T04:16:20.598Z,36.22
2017-01-13T04:17:01.211Z,36.34
2017-01-13T04:17:41.792Z,36.42
2017-01-13T04:18:22.378Z,36.34
2017-01-13T04:19:02.970Z,36.44
2017-01-13T04:19:43.567Z,36.44
2017-01-13T04:20:24.170Z,36.42
2017-01-13T04:21:04.773Z,36.22
2017-01-13T04:21:45.369Z,36.22
2017-01-13T04:22:25.976Z,36.42
2017-01-13T04:23:06.563Z,36.32
2017-01-13T04:23:47.167Z,36.44
2017-01-13T04:24:27.836Z,36.42
2017-01-13T04:25:08.441Z,36.22
2017-01-13T04:25:49.029Z,36.44
2017-01-13T04:26:29.645Z,36.32
2017-01-13T04:27:10.237Z,36.32
2017-01-13T04:27:50.839Z,36.32
2017-01-13T04:28:31.437Z,36.44
2017-01-13T04:29:12.043Z,36.52
2017-01-13T04:29:52.654Z,36.34
2017-01-13T04:30:33.242Z,36.44
2017-01-13T04:31:13.856Z,36.32
2017-01-13T04:31:54.467Z,36.34
2017-01-13T04:32:35.051Z,36.32
2017-01-13T04:33:15.653Z,36.32
2017-01-13T04:33:56.253Z,36.34
2017-01-13T04:34:36.852Z,36.52
2017-01-13T04:35:17.468Z,36.42
2017-01-13T04:35:58.049Z,36.32
2017-01-13T04:36:38.644Z,36.42
2017-01-13T04:37:19.236Z,36.22
2017-01-13T04:37:59.852Z,36.32
2017-01-13T04:38:40.457Z,36.32
2017-01-13T04:39:21.851Z,36.42
2017-01-13T04:40:02.441Z,36.52
2017-01-13T04:40:43.043Z,36.52
2017-01-13T04:41:23.655Z,36.42
2017-01-13T04:42:04.228Z,36.32
2017-01-13T04:42:44.831Z,36.42
2017-01-13T04:43:25.412Z,36.42
2017-01-13T04:44:05.995Z,36.22
2017-01-13T04:44:46.582Z,36.22
2017-01-13T04:45:27.165Z,36.42
2017-01-13T04:46:07.740Z,36.22
2017-01-13T04:46:48.327Z,36.22
2017-01-13T04:47:28.920Z,36.22
2017-01-13T04:48:09.505Z,36.32
2017-01-13T04:48:50.092Z,36.42
2017-01-13T04:49:30.677Z,36.42
2017-01-13T04:50:11.280Z,36.42
2017-01-13T04:50:51.872Z,36.34
2017-01-13T04:51:32.454Z,36.32
2017-01-13T04:52:13.037Z,36.52
2017-01-13T04:52:53.620Z,36.42
2017-01-13T04:53:34.216Z,36.24
2017-01-13T04:54:14.799Z,36.42
2017-01-13T04:54:55.377Z,36.63
2017-01-13T04:55:35.992Z,36.42
2017-01-13T04:56:16.564Z,36.42
2017-01-13T04:56:57.149Z,36.52
2017-01-13T04:57:37.727Z,36.42
2017-01-13T04:58:18.337Z,36.32
2017-01-13T04:58:58.934Z,36.44
2017-01-13T04:59:39.519Z,36.42
2017-01-13T05:00:20.137Z,36.42
2017-01-13T05:01:00.729Z,36.42
2017-01-13T05:01:41.340Z,36.32
2017-01-13T05:02:21.965Z,36.42
2017-01-13T05:03:02.570Z,36.42
2017-01-13T05:03:43.168Z,36.52
2017-01-13T05:04:23.770Z,36.42
2017-01-13T05:05:04.370Z,36.52
2017-01-13T05:05:44.975Z,36.32
2017-01-13T05:06:25.559Z,36.32
2017-01-13T05:07:06.147Z,36.32
2017-01-13T05:07:46.734Z,36.42
2017-01-13T05:08:27.341Z,36.52
2017-01-13T05:09:07.929Z,36.52
2017-01-13T05:09:48.526Z,36.44
2017-01-13T05:10:29.139Z,36.42
2017-01-13T05:11:09.741Z,36.32
2017-01-13T05:11:50.340Z,36.32
2017-01-13T05:12:30.955Z,36.42
2017-01-13T05:13:11.535Z,36.42
2017-01-13T05:13:52.136Z,36.34
2017-01-13T05:14:32.761Z,36.42
2017-01-13T05:15:13.358Z,36.32
2017-01-13T05:15:53.956Z,36.42
2017-01-13T05:16:34.525Z,36.32
2017-01-13T05:17:15.124Z,36.32
2017-01-13T05:17:55.716Z,36.52
2017-01-13T05:18:36.309Z,36.42
2017-01-13T05:19:16.908Z,36.52
2017-01-13T05:19:57.512Z,36.52
2017-01-13T05:20:38.139Z,36.42
2017-01-13T05:21:18.705Z,36.52
2017-01-13T05:21:59.302Z,36.52
2017-01-13T05:22:39.881Z,36.61
2017-01-13T05:23:20.491Z,36.32
2017-01-13T05:24:01.107Z,36.61
2017-01-13T05:24:41.688Z,36.42
2017-01-13T05:25:22.277Z,36.32
2017-01-13T05:26:02.869Z,36.42
2017-01-13T05:26:43.487Z,36.42
2017-01-13T05:27:24.077Z,36.42
2017-01-13T05:28:04.680Z,36.42
2017-01-13T05:28:45.302Z,36.32
2017-01-13T05:29:25.932Z,36.52
2017-01-13T05:30:06.543Z,36.42
2017-01-13T05:30:47.140Z,36.52
2017-01-13T05:31:27.749Z,36.42
2017-01-13T05:32:08.376Z,36.32
2017-01-13T05:32:48.992Z,36.42
2017-01-13T05:33:29.611Z,36.42
2017-01-13T05:34:10.206Z,36.32
2017-01-13T05:34:50.822Z,36.52
2017-01-13T05:35:31.428Z,36.42
2017-01-13T05:36:12.012Z,36.61
2017-01-13T05:36:52.613Z,36.52
2017-01-13T05:37:34.836Z,36.52
2017-01-13T05:38:15.426Z,36.52
2017-01-13T05:38:56.011Z,36.42
2017-01-13T05:39:36.622Z,36.61
2017-01-13T05:40:17.213Z,36.52
2017-01-13T05:40:57.818Z,36.61
2017-01-13T05:41:38.419Z,36.42
2017-01-13T05:42:19.024Z,36.42
2017-01-13T05:42:59.616Z,36.42
2017-01-13T05:43:40.206Z,36.42
2017-01-13T05:44:20.798Z,36.42
2017-01-13T05:45:01.400Z,36.42
2017-01-13T05:45:41.992Z,36.52
2017-01-13T05:46:22.603Z,36.52
2017-01-13T05:47:03.192Z,36.42
2017-01-13T05:47:43.779Z,36.42
2017-01-13T05:48:24.370Z,36.52
2017-01-13T05:49:04.957Z,36.52
2017-01-13T05:49:45.538Z,36.52
2017-01-13T05:50:26.125Z,36.52
2017-01-13T05:51:06.723Z,36.52
2017-01-13T05:51:47.317Z,36.52
2017-01-13T05:52:27.941Z,36.52
2017-01-13T05:53:08.558Z,36.52
2017-01-13T05:53:49.144Z,36.61
2017-01-13T05:54:29.736Z,36.52
2017-01-13T05:55:10.332Z,36.61
2017-01-13T05:55:50.913Z,36.32
2017-01-13T05:56:31.512Z,36.42
2017-01-13T05:57:12.098Z,36.32
2017-01-13T05:57:52.692Z,36.32
2017-01-13T05:58:33.284Z,36.32
2017-01-13T05:59:13.888Z,36.32
2017-01-13T05:59:54.493Z,36.42
2017-01-13T06:00:35.089Z,36.42
2017-01-13T06:01:15.702Z,36.52
2017-01-13T06:01:56.313Z,36.42
2017-01-13T06:02:36.887Z,36.32
2017-01-13T06:03:17.482Z,36.42
2017-01-13T06:03:58.093Z,36.42
2017-01-13T06:04:38.701Z,36.32
2017-01-13T06:05:19.298Z,36.52
2017-01-13T06:05:59.859Z,36.52
2017-01-13T06:06:40.472Z,36.42
2017-01-13T06:07:21.052Z,36.52
2017-01-13T06:08:01.653Z,36.42
2017-01-13T06:08:42.257Z,36.32
2017-01-13T06:09:22.863Z,36.42
2017-01-13T06:10:03.436Z,36.61
2017-01-13T06:10:44.034Z,36.52
2017-01-13T06:11:26.552Z,36.52
2017-01-13T06:12:07.158Z,36.42
2017-01-13T06:12:47.877Z,36.42
2017-01-13T06:13:28.389Z,36.42
2017-01-13T06:14:09.043Z,36.52
2017-01-13T06:14:49.644Z,36.42
2017-01-13T06:15:30.237Z,36.52
2017-01-13T06:16:10.845Z,36.52
2017-01-13T06:16:51.462Z,36.52
2017-01-13T06:17:32.071Z,36.42
2017-01-13T06:18:12.672Z,36.42
2017-01-13T06:18:53.274Z,36.42
2017-01-13T06:19:33.853Z,36.52
2017-01-13T06:20:14.439Z,36.52
2017-01-13T06:20:55.023Z,36.52
2017-01-13T06:21:35.603Z,36.61
2017-01-13T06:22:16.205Z,36.52
2017-01-13T06:22:56.823Z,36.52
2017-01-13T06:23:37.413Z,36.42
2017-01-13T06:24:18.048Z,36.42
2017-01-13T06:24:58.643Z,36.42
2017-01-13T06:25:39.241Z,36.42
2017-01-13T06:26:19.858Z,36.42
2017-01-13T06:27:00.499Z,36.52
2017-01-13T06:27:41.082Z,36.52
2017-01-13T06:28:21.668Z,36.42
2017-01-13T06:29:02.268Z,36.42
2017-01-13T06:29:42.859Z,36.52
2017-01-13T06:30:23.450Z,36.61
2017-01-13T06:31:04.034Z,36.42
2017-01-13T06:31:44.634Z,36.42
2017-01-13T06:32:25.225Z,36.42
2017-01-13T06:33:05.814Z,36.42
2017-01-13T06:33:46.421Z,36.42
2017-01-13T06:34:27.011Z,36.42
2017-01-13T06:35:07.611Z,36.42
2017-01-13T06:35:48.204Z,36.32
2017-01-13T06:36:28.793Z,36.42
2017-01-13T06:37:09.379Z,36.52
2017-01-13T06:37:50.036Z,36.52
2017-01-13T06:38:30.622Z,36.52
2017-01-13T06:39:11.239Z,36.52
2017-01-13T06:39:51.861Z,36.52
2017-01-13T06:40:32.452Z,36.42
2017-01-13T06:41:13.042Z,36.32
2017-01-13T06:41:53.649Z,36.42
2017-01-13T06:42:34.247Z,36.42
2017-01-13T06:43:14.850Z,36.32
2017-01-13T06:43:55.441Z,36.52
2017-01-13T06:44:36.060Z,36.61
2017-01-13T06:45:16.662Z,36.52
2017-01-13T06:45:57.256Z,36.42
2017-01-13T06:46:37.853Z,36.52
2017-01-13T06:47:18.459Z,36.52
2017-01-13T06:47:59.089Z,36.42
2017-01-13T06:48:39.711Z,36.52
2017-01-13T06:49:20.295Z,36.42
2017-01-13T06:50:00.915Z,36.42
2017-01-13T06:50:41.570Z,36.22
2017-01-13T06:51:22.185Z,36.32
2017-01-13T06:52:02.777Z,36.42
2017-01-13T06:52:43.370Z,36.52
2017-01-13T06:53:23.956Z,36.52
2017-01-13T06:54:04.566Z,36.32
2017-01-13T06:54:45.167Z,36.22
2017-01-13T06:55:26.524Z,36.32
2017-01-13T06:56:07.107Z,36.52
2017-01-13T06:56:47.745Z,36.42
2017-01-13T06:57:28.338Z,36.42
2017-01-13T06:58:08.955Z,36.52
2017-01-13T06:58:49.567Z,36.32
2017-01-13T06:59:30.154Z,36.42
2017-01-13T07:00:10.771Z,35.94
2017-01-13T07:00:51.358Z,35.64
2017-01-13T07:01:31.944Z,35.76
2017-01-13T07:02:12.541Z,35.66
2017-01-13T07:02:53.139Z,35.55
2017-01-13T07:03:33.743Z,34.5
2017-01-13T07:04:14.337Z,34.41
2017-01-13T07:04:54.947Z,34.02
2017-01-13T07:05:35.546Z,34.21
2017-01-13T07:06:16.137Z,33.83
2017-01-13T07:06:56.752Z,33.83
2017-01-13T07:07:37.340Z,34.31
2017-01-13T07:08:17.929Z,34.41
2017-01-13T07:08:58.516Z,34.41
2017-01-13T07:09:39.098Z,34.6
2017-01-13T07:10:19.677Z,34.6
2017-01-13T07:11:00.258Z,34.6
2017-01-13T07:11:40.865Z,34.6
2017-01-13T07:12:21.446Z,34.31
2017-01-13T07:13:02.051Z,34.79
2017-01-13T07:13:42.651Z,34.89
2017-01-13T07:14:23.239Z,34.5
2017-01-13T07:15:03.822Z,34.99
2017-01-13T07:15:44.427Z,34.41
2017-01-13T07:16:25.008Z,34.6
2017-01-13T07:17:05.604Z,34.21
2017-01-13T07:17:46.212Z,34.31
2017-01-13T07:18:26.779Z,34.21
2017-01-13T07:19:07.361Z,34.31
2017-01-13T07:19:47.943Z,34.6
2017-01-13T07:20:28.541Z,34.31
2017-01-13T07:21:09.159Z,34.31
2017-01-13T07:21:49.751Z,34.02
2017-01-13T07:22:30.344Z,34.12
2017-01-13T07:23:10.955Z,33.83
2017-01-13T07:23:51.541Z,34.31
2017-01-13T07:24:32.135Z,34.12
2017-01-13T07:25:12.734Z,34.12
2017-01-13T07:25:53.321Z,34.21
2017-01-13T07:26:33.910Z,34.21
2017-01-13T07:27:14.508Z,33.83
2017-01-13T07:27:55.147Z,33.94
2017-01-13T07:28:35.756Z,34.41
2017-01-13T07:29:16.347Z,33.83
2017-01-13T07:29:56.940Z,33.92
2017-01-13T07:30:37.521Z,34.02
2017-01-13T07:31:18.118Z,34.31
2017-01-13T07:31:58.725Z,34.12
2017-01-13T07:32:39.316Z,34.21
2017-01-13T07:33:19.914Z,34.21
2017-01-13T07:34:00.520Z,34.21
2017-01-13T07:34:41.128Z,34.31
2017-01-13T07:35:21.729Z,34.02
2017-01-13T07:36:02.325Z,33.92
2017-01-13T07:36:42.901Z,34.02
2017-01-13T07:37:23.486Z,33.92
2017-01-13T07:38:04.084Z,34.04
2017-01-13T07:38:44.680Z,34.12
2017-01-13T07:39:25.270Z,34.04
2017-01-13T07:40:05.887Z,33.94
2017-01-13T07:40:46.496Z,33.84
2017-01-13T07:41:27.097Z,33.55
2017-01-13T07:42:07.700Z,33.65
2017-01-13T07:42:48.284Z,33.94
2017-01-13T07:43:28.902Z,33.65
2017-01-13T07:44:09.489Z,33.94
2017-01-13T07:44:50.070Z,33.55
2017-01-13T07:45:30.691Z,33.65
2017-01-13T07:46:11.312Z,33.55
2017-01-13T07:46:51.910Z,33.75
2017-01-13T07:47:32.511Z,33.94
2017-01-13T07:48:14.011Z,33.45
2017-01-13T07:48:53.728Z,33.75
2017-01-13T07:49:34.337Z,33.65
2017-01-13T07:50:14.929Z,33.94
2017-01-13T07:50:55.535Z,33.75
2017-01-13T07:51:36.126Z,33.75
2017-01-13T07:52:16.753Z,33.65
2017-01-13T07:52:57.332Z,33.65
2017-01-13T07:53:37.936Z,33.94
2017-01-13T07:54:18.536Z,33.84
2017-01-13T07:54:59.145Z,33.65
2017-01-13T07:55:39.736Z,33.65
2017-01-13T07:56:20.387Z,33.65
2017-01-13T07:57:00.996Z,33.55
2017-01-13T07:57:41.607Z,33.65
2017-01-13T07:58:22.217Z,33.45
2017-01-13T07:59:02.818Z,33.45
2017-01-13T07:59:43.409Z,33.55
2017-01-13T08:00:24.016Z,33.65
2017-01-13T08:01:04.612Z,33.36
2017-01-13T08:01:45.217Z,33.45
2017-01-13T08:02:25.811Z,33.55
2017-01-13T08:03:06.427Z,33.65
2017-01-13T08:03:47.020Z,33.36
2017-01-13T08:04:27.617Z,33.45
2017-01-13T08:05:08.218Z,33.26
2017-01-13T08:05:48.828Z,33.55
2017-01-13T08:06:29.428Z,33.45
2017-01-13T08:07:10.046Z,33.55
2017-01-13T08:07:50.635Z,33.17
2017-01-13T08:08:31.234Z,33.26
2017-01-13T08:09:11.836Z,33.45
2017-01-13T08:09:52.429Z,33.55
2017-01-13T08:10:33.044Z,33.26
2017-01-13T08:11:13.647Z,33.36
2017-01-13T08:11:54.256Z,33.36
2017-01-13T08:12:34.860Z,33.36
2017-01-13T08:13:15.453Z,33.36
2017-01-13T08:13:56.045Z,33.36
2017-01-13T08:14:36.642Z,33.17
2017-01-13T08:15:17.272Z,33.26
2017-01-13T08:15:57.875Z,33.17
2017-01-13T08:16:38.507Z,33.36
2017-01-13T08:17:19.101Z,33.26
2017-01-13T08:17:59.724Z,33.07
2017-01-13T08:18:40.311Z,33.07
2017-01-13T08:19:20.896Z,33.26
2017-01-13T08:20:01.515Z,32.97
2017-01-13T08:20:42.127Z,32.97
2017-01-13T08:21:22.721Z,33.07
2017-01-13T08:22:03.329Z,32.97
2017-01-13T08:22:43.933Z,33.17
2017-01-13T08:23:24.531Z,33.07
2017-01-13T08:24:05.132Z,33.07
2017-01-13T08:24:45.725Z,32.97
2017-01-13T08:25:26.334Z,32.59
2017-01-13T08:26:06.928Z,32.68
2017-01-13T08:26:47.543Z,32.78
2017-01-13T08:27:28.138Z,32.78
2017-01-13T08:28:08.748Z,32.59
2017-01-13T08:28:49.337Z,32.49
2017-01-13T08:29:29.958Z,32.87
2017-01-13T08:30:10.543Z,33.07
2017-01-13T08:30:51.136Z,32.68
2017-01-13T08:31:31.739Z,32.78
2017-01-13T08:32:12.363Z,32.78
2017-01-13T08:32:53.008Z,32.59
2017-01-13T08:33:33.599Z,32.78
2017-01-13T08:34:14.209Z,32.68
2017-01-13T08:34:54.826Z,32.68
2017-01-13T08:35:35.409Z,32.87
2017-01-13T08:36:16.007Z,32.78
2017-01-13T08:36:56.601Z,32.68
2017-01-13T08:37:37.186Z,32.87
2017-01-13T08:38:17.774Z,32.87
2017-01-13T08:38:58.423Z,32.87
2017-01-13T08:39:39.024Z,32.78
2017-01-13T08:40:19.623Z,32.78
2017-01-13T08:41:00.227Z,32.78
2017-01-13T08:41:40.815Z,32.87
2017-01-13T08:42:21.405Z,32.59
2017-01-13T08:43:01.989Z,32.59